Bay Area Logo

Salinas, CA Single Family Real Estate Listings

525 Total Real Estate Listings * Click on table heading to sort
Date Posted Property Type Style Address Price Living Area Lot Size Price/Sq Ft.
2018-09-18 Single Family 19630 Pesante Road Salinas, CA 93907 $549,000 1,810 sq. ft. 116,741 sq. ft. $303
2018-09-18 Single Family 621 Fairmont Drive Salinas, CA 93901 $557,000 2,386 sq. ft. 7,405 sq. ft. $233
2018-09-18 Single Family 333 Capitol Street Salinas, CA 93901 $389,800 1,057 sq. ft. 6,970 sq. ft. $369
2018-09-18 Single Family 27550 Prestancia Circle Salinas, CA 93908 $969,000 3,818 sq. ft. 16,117 sq. ft. $254
2018-09-17 Single Family 1986 Gladstone Way Salinas, CA 93906 $639,000 2,447 sq. ft. 6,534 sq. ft. $261
2018-09-17 Single Family 383 Alvin Drive Salinas, CA 93906 $399,000 1,312 sq. ft. 5,663 sq. ft. $304
2018-09-17 Single Family Ranch 629 Melrose Drive Salinas, CA 93901 $629,000 3,200 sq. ft. 7,405 sq. ft. $197
2018-09-17 Single Family 212 Montclair Lane Salinas, CA 93906 $589,000 1,587 sq. ft. 5,663 sq. ft. $371
2018-09-16 Single Family 27857 Crowne Point Drive Salinas, CA 93908 $1,350,000 4,330 sq. ft. 68,389 sq. ft. $312
2018-09-15 Single Family 1479 Nichols Avenue Salinas, CA 93906 $449,900 1,036 sq. ft. 9,583 sq. ft. $434
2018-09-15 Single Family 385 Victoria Avenue Salinas, CA 93906 $589,000 2,473 sq. ft. 6,098 sq. ft. $238
2018-09-14 Single Family Mediterranean 1033 Twin Creeks Drive Salinas, CA 93905 $529,000 1,480 sq. ft. 4,792 sq. ft. $357
2018-09-14 Single Family 11 Tokay Circle Salinas, CA 93906 $585,000 2,041 sq. ft. 5,663 sq. ft. $287
2018-09-14 Single Family Ranch 835 Saint Ann Drive Salinas, CA 93901 $499,000 1,604 sq. ft. 6,098 sq. ft. $311
2018-09-13 Single Family 17057 Arriba Way Salinas, CA 93907 $589,000 1,732 sq. ft. 13,068 sq. ft. $340
2018-09-13 Single Family Traditional 1460 Nichols Avenue Salinas, CA 93906 $429,000 1,036 sq. ft. 6,534 sq. ft. $414
2018-09-13 Single Family Contemporary 26140 Legends Court Salinas, CA 93908 $998,000 3,266 sq. ft. 13,068 sq. ft. $306
2018-09-13 Single Family Bungalow; Contemporary; Cottage; Ranch 363 Chardonnay Drive Salinas, CA 93906 $544,000 1,604 sq. ft. 6,098 sq. ft. $339
2018-09-13 Single Family 899 Canterbury Street Salinas, CA 93906 $589,000 2,191 sq. ft. 8,276 sq. ft. $269
2018-09-12 Single Family Ranch 10 Pope Drive Salinas, CA 93907 $535,000 1,677 sq. ft. 39,204 sq. ft. $319
2018-09-12 Single Family Ranch 13250 Louise Street Salinas, CA 93906 $440,000 1,102 sq. ft. 6,098 sq. ft. $399
2018-09-11 Single Family 846 Cactus Court Salinas, CA 93905 $535,000 2,227 sq. ft. 5,227 sq. ft. $240
2018-09-11 Single Family 256 Wildwood Way Salinas, CA 93908 $697,000 1,465 sq. ft. 17,424 sq. ft. $476
2018-09-11 Single Family 13090 Luber Street Salinas, CA 93906 $415,000 1,073 sq. ft. 6,098 sq. ft. $387
2018-09-11 Single Family Ranch 19135 Marjorie Road Salinas, CA 93907 $609,000 1,568 sq. ft. 59,677 sq. ft. $388
2018-09-10 Single Family 1142 Fairview Avenue Salinas, CA 93905 $395,000 973 sq. ft. 6,098 sq. ft. $406
2018-09-10 Single Family 15 3rd Street Salinas, CA 93906 $375,000 1,003 sq. ft. 3,920 sq. ft. $374
2018-09-10 Single Family 7 Mcallister Circle Salinas, CA 93907 $509,000 1,725 sq. ft. 4,792 sq. ft. $295
2018-09-10 Single Family 5 Muroc Street Salinas, CA 93907 $325,000 1,031 sq. ft. 7,405 sq. ft. $315
2018-09-09 Single Family 1346 New Hampshire Court Salinas, CA 93905 $498,900 1,800 sq. ft. 3,485 sq. ft. $277
2018-09-08 Single Family 139 Clay Street Salinas, CA 93901 $730,000 2,700 sq. ft. 13,504 sq. ft. $270
2018-09-08 Single Family Cottage 312 Pingree Way Salinas, CA 93906 $426,000 1,123 sq. ft. 9,148 sq. ft. $379
2018-09-08 Single Family 1917 Harvard Court Salinas, CA 93906 $499,888 1,443 sq. ft. 5,663 sq. ft. $346
2018-09-07 Single Family 1042 Polk Street Salinas, CA 93906 $499,000 1,698 sq. ft. 6,970 sq. ft. $294
2018-09-07 Single Family Ranch 17961 Pesante Road Salinas, CA 93907 $610,000 1,056 sq. ft. 20,909 sq. ft. $578
2018-09-07 Single Family 835 Buckhorn Drive Salinas, CA 93905 $478,000 1,823 sq. ft. 5,227 sq. ft. $262
2018-09-06 Single Family 310 Acacia Street Salinas, CA 93901 $624,888 1,975 sq. ft. 7,841 sq. ft. $316
2018-09-06 Single Family Bungalow 1075 Howe Circle Salinas, CA 93907 $389,000 984 sq. ft. 3,920 sq. ft. $395
2018-09-06 Single Family 1736 Merlot Way Salinas, CA 93906 $530,000 1,604 sq. ft. 6,098 sq. ft. $330
2018-09-06 Single Family Contemporary 949 Crestview Street Salinas, CA 93906 $537,999 1,949 sq. ft. 4,356 sq. ft. $276
2018-09-06 Single Family Mediterranean 22670 Murietta Road Salinas, CA 93908 $789,000 2,233 sq. ft. 12,197 sq. ft. $353
2018-09-06 Single Family 1882 Lancashire Drive Salinas, CA 93906 $499,900 1,437 sq. ft. 4,792 sq. ft. $348
2018-09-05 Single Family Mediterranean 1789 Klamath Drive Salinas, CA 93906 $679,000 2,922 sq. ft. 5,663 sq. ft. $232
2018-09-05 Single Family 19705 Pinehurst Lane Salinas, CA 93906 $699,000 2,308 sq. ft. 20,473 sq. ft. $303
2018-09-05 Single Family 7 Cedros Avenue Salinas, CA 93901 $560,000 2,122 sq. ft. 6,534 sq. ft. $264
2018-09-05 Single Family 812 Bedford Drive Salinas, CA 93901 $599,999 1,924 sq. ft. 6,534 sq. ft. $312
2018-09-05 Single Family 1305 Bellehaven Street Salinas, CA 93905 $315,000 917 sq. ft. 6,970 sq. ft. $344
2018-09-05 Single Family 12955 Arthur Street Salinas, CA 93906 $425,000 1,111 sq. ft. 6,098 sq. ft. $383
2018-09-05 Single Family Mediterranean 1510 Cottonwood Drive Salinas, CA 93905 $559,000 2,160 sq. ft. 6,098 sq. ft. $259
2018-09-05 Single Family 1314 Ramona Avenue Salinas, CA 93906 $445,000 1,341 sq. ft. 6,098 sq. ft. $332
2018-09-05 Single Family Traditional 17820 Northwood Place Salinas, CA 93907 $855,000 2,171 sq. ft. 122,839 sq. ft. $394
2018-09-04 Single Family 13040 Luber Street Salinas, CA 93906 $420,000 1,140 sq. ft. 6,534 sq. ft. $368
2018-09-04 Single Family 500 Manor Drive Salinas, CA 93901 $699,000 2,501 sq. ft. 11,761 sq. ft. $279
2018-09-04 Single Family 378 Mendocino Drive Salinas, CA 93906 $469,000 1,312 sq. ft. 6,534 sq. ft. $357
2018-09-02 Single Family 211 Curtis Street Salinas, CA 93906 $423,000 1,051 sq. ft. 9,583 sq. ft. $402
2018-09-02 Single Family 4 Bernal Drive Salinas, CA 93906 $359,000 958 sq. ft. 5,663 sq. ft. $375
2018-09-01 Single Family 348 Navajo Drive Salinas, CA 93906 $489,900 1,476 sq. ft. 6,098 sq. ft. $332
2018-09-01 Single Family 21 San Juan Drive Salinas, CA 93901 $569,900 1,326 sq. ft. 7,405 sq. ft. $430
2018-08-31 Single Family 1 Catalina Avenue Salinas, CA 93901 $499,000 1,391 sq. ft. 5,663 sq. ft. $359
2018-08-31 Single Family Mediterranean 27586 Prestancia Circle Salinas, CA 93908 $998,000 3,818 sq. ft. 34,848 sq. ft. $261
2018-08-31 Single Family 5 Buckingham Circle Salinas, CA 93906 $597,900 2,195 sq. ft. 5,663 sq. ft. $272
2018-08-31 Single Family Ranch 268 Maryal Drive Salinas, CA 93906 $449,000 1,543 sq. ft. 6,534 sq. ft. $291
2018-08-30 Single Family 46 Santa Monica Court Salinas, CA 93901 $559,900 1,641 sq. ft. 9,583 sq. ft. $341
2018-08-30 Single Family Mediterranean 836 Peaceful Cove Way Salinas, CA 93906 $479,000 1,315 sq. ft. 6,098 sq. ft. $364
2018-08-30 Single Family 657 Park Street Salinas, CA 93901 $439,000 1,242 sq. ft. 6,098 sq. ft. $353
2018-08-30 Single Family Ranch 9490 Valley Oak Way Salinas, CA 93907 $535,000 1,612 sq. ft. 13,939 sq. ft. $332
2018-08-30 Single Family 1014 Fitzgerald Street Salinas, CA 93906 $547,000 2,192 sq. ft. 3,920 sq. ft. $250
2018-08-29 Single Family 21004 Country Park Road Salinas, CA 93908 $670,000 1,764 sq. ft. 3,920 sq. ft. $380
2018-08-29 Single Family 19391 Acclaim Drive Salinas, CA 93908 $693,500 1,831 sq. ft. 6,098 sq. ft. $379
2018-08-29 Single Family 1148 Via Del Sol Road Salinas, CA 93907 $399,000 1,000 sq. ft. 58,806 sq. ft. $399
2018-08-29 Single Family 903 Pajaro Street Salinas, CA 93901 $659,900 1,951 sq. ft. 7,405 sq. ft. $338
2018-08-29 Single Family 7875 Lynne Haven Way Salinas, CA 93907 $374,900 2,231 sq. ft. 545,807 sq. ft. $168
2018-08-29 Single Family 15 La Mirada Court Salinas, CA 93901 $719,777 2,509 sq. ft. 8,276 sq. ft. $287
2018-08-28 Single Family 18 Bardin Circle Salinas, CA 93905 $350,000 768 sq. ft. 6,098 sq. ft. $456
2018-08-27 Single Family 433 Homestead Avenue Salinas, CA 93901 $450,000 1,572 sq. ft. 5,227 sq. ft. $286
2018-08-27 Single Family Traditional 776 Bedford Drive Salinas, CA 93901 $519,000 1,524 sq. ft. 6,534 sq. ft. $341
2018-08-27 Single Family Bungalow 20 3rd Street Salinas, CA 93906 $399,900 1,242 sq. ft. 3,920 sq. ft. $322
2018-08-25 Single Family 1625 Beacon Hill Drive Salinas, CA 93906 $469,900 1,501 sq. ft. 3,920 sq. ft. $313
2018-08-25 Single Family 302 Tynan Way Salinas, CA 93906 $585,000 1,784 sq. ft. 6,098 sq. ft. $328
2018-08-24 Single Family 24660 Foothill Dr Drive Salinas, CA 93908 $719,000 2,791 sq. ft. 43,560 sq. ft. $258
2018-08-24 Single Family Ranch 192 Gardenia Drive Salinas, CA 93906 $329,900 1,309 sq. ft. 6,970 sq. ft. $252
2018-08-24 Single Family 1503 Duran Circle Salinas, CA 93906 $369,900 1,125 sq. ft. 3,920 sq. ft. $329
2018-08-24 Single Family 30 Longfellow Circle Salinas, CA 93906 $589,000 2,351 sq. ft. 7,405 sq. ft. $251
2018-08-23 Single Family 23445 Redding Circle Salinas, CA 93908 $995,000 2,730 sq. ft. 55,321 sq. ft. $364
2018-08-23 Single Family 4 Burlington Circle Salinas, CA 93906 $519,000 1,682 sq. ft. 5,227 sq. ft. $309
2018-08-23 Single Family 1046 Polk Street Salinas, CA 93906 $515,000 1,471 sq. ft. 7,405 sq. ft. $350
2018-08-23 Single Family Ranch 46 San Benancio Road Salinas, CA 93908 $1,450,000 3,425 sq. ft. 91,476 sq. ft. $423
2018-08-23 Single Family Ranch 1517 Placer Way Salinas, CA 93906 $445,000 1,312 sq. ft. 7,405 sq. ft. $339
2018-08-23 Single Family Contemporary 957 Fitzgerald Street Salinas, CA 93906 $467,000 1,681 sq. ft. 3,049 sq. ft. $278
2018-08-22 Single Family Ranch 523 Napa Way Salinas, CA 93906 $510,000 2,008 sq. ft. 6,534 sq. ft. $254
2018-08-22 Single Family 9612 Sandbur Place Salinas, CA 93907 $624,888 2,012 sq. ft. 11,761 sq. ft. $311
2018-08-22 Single Family 1523 Cougar Drive Salinas, CA 93905 $419,000 1,285 sq. ft. 4,792 sq. ft. $326
2018-08-22 Single Family 316 Palma Drive Salinas, CA 93901 $619,000 1,552 sq. ft. 6,970 sq. ft. $399
2018-08-22 Single Family Traditional 1429 Linwood Drive Salinas, CA 93906 $425,000 1,123 sq. ft. 6,098 sq. ft. $378
2018-08-22 Single Family 26406 Honor Lane Salinas, CA 93908 $799,500 1,951 sq. ft. 6,970 sq. ft. $410
2018-08-21 Single Family 1943 Oxford Court Salinas, CA 93906 $589,999 2,473 sq. ft. 5,663 sq. ft. $239
2018-08-21 Single Family Ranch 17051 Fiesta Way Salinas, CA 93907 $660,000 1,562 sq. ft. 15,246 sq. ft. $423
2018-08-21 Single Family 7045 Tustin Road Salinas, CA 93907 $674,900 1,500 sq. ft. 54,014 sq. ft. $450
2018-08-20 Single Family 1063 Tyler Street Salinas, CA 93906 $408,999 1,200 sq. ft. 6,534 sq. ft. $341
2018-08-20 Single Family Bungalow; Ranch 350 San Benancio Road Salinas, CA 93908 $2,395,000 1,968 sq. ft. 1,574,694 sq. ft. $1,217
2018-08-20 Single Family 1292 Hilltop Drive Salinas, CA 93905 $385,000 1,030 sq. ft. 6,098 sq. ft. $374
2018-08-20 Single Family 19735 Moonglow Road Salinas, CA 93907 $1,099,000 3,119 sq. ft. 96,703 sq. ft. $352
2018-08-18 Single Family 19 Downing Circle Salinas, CA 93906 $619,000 2,579 sq. ft. 5,663 sq. ft. $240
2018-08-18 Single Family 22650 Murietta Road Salinas, CA 93908 $739,900 1,928 sq. ft. 10,890 sq. ft. $384
2018-08-17 Single Family Contemporary 1788 Cherokee Drive Salinas, CA 93906 $455,000 1,775 sq. ft. 3,920 sq. ft. $256
2018-08-17 Single Family Cottage 408 Hyland Drive Salinas, CA 93907 $370,000 875 sq. ft. 7,405 sq. ft. $423
2018-08-16 Single Family 9858 Colonial Place Salinas, CA 93907 $579,900 2,176 sq. ft. 13,504 sq. ft. $266
2018-08-16 Single Family 445 Cabrillo Avenue Salinas, CA 93906 $475,000 2,042 sq. ft. 6,534 sq. ft. $233
2018-08-16 Single Family 2182 Perez Street Salinas, CA 93906 $398,000 1,012 sq. ft. 7,841 sq. ft. $393
2018-08-15 Single Family 1559 Alisal Street Salinas, CA 93905 $323,000 780 sq. ft. 6,098 sq. ft. $414
2018-08-15 Single Family 1854 Bradbury Street Salinas, CA 93906 $492,500 1,928 sq. ft. 3,920 sq. ft. $255
2018-08-15 Single Family Ranch 1611 Cupertino Way Salinas, CA 93906 $465,000 1,235 sq. ft. 6,970 sq. ft. $377
2018-08-15 Single Family 232 Maryal Drive Salinas, CA 93906 $425,000 1,112 sq. ft. 6,970 sq. ft. $382
2018-08-15 Single Family Cottage; Craftsman 8025 Teichman Court Salinas, CA 93907 $695,000 1,525 sq. ft. 48,352 sq. ft. $456
2018-08-15 Single Family 755 Alvarado Drive Salinas, CA 93907 $409,900 1,130 sq. ft. 3,485 sq. ft. $363
2018-08-15 Single Family Traditional 206 La Mesa Drive Salinas, CA 93901 $517,500 1,427 sq. ft. 6,534 sq. ft. $363
2018-08-14 Single Family Traditional 24145 Mallard Court Salinas, CA 93908 $995,000 2,971 sq. ft. 6,534 sq. ft. $335
2018-08-14 Single Family 1234 Summit Drive Salinas, CA 93905 $390,000 1,030 sq. ft. 6,970 sq. ft. $379
2018-08-14 Single Family Mediterranean 5 Creekbridge Circle Salinas, CA 93906 $625,000 2,156 sq. ft. 6,970 sq. ft. $290
2018-08-14 Single Family 1182 Via Del Sol Road Salinas, CA 93907 $574,900 1,176 sq. ft. 37,462 sq. ft. $489
2018-08-13 Single Family Ranch 1121 Circle Drive Salinas, CA 93905 $427,000 1,890 sq. ft. 8,276 sq. ft. $226
2018-08-13 Single Family 1603 Atherton Way Salinas, CA 93906 $530,000 2,182 sq. ft. 7,841 sq. ft. $243
2018-08-13 Single Family 543 Cherokee Court Salinas, CA 93906 $425,000 1,216 sq. ft. 7,405 sq. ft. $350
2018-08-13 Single Family Traditional 828 Via Maria Salinas, CA 93901 $460,000 1,514 sq. ft. 6,098 sq. ft. $304
2018-08-12 Single Family 770 Holly Street Salinas, CA 93905 $309,000 1,360 sq. ft. 6,970 sq. ft. $227
2018-08-12 Single Family 1432 Ramona Avenue Salinas, CA 93906 $455,000 1,205 sq. ft. 6,098 sq. ft. $378
2018-08-12 Single Family 10770 Ralph Lane Salinas, CA 93907 $453,000 691 sq. ft. 43,560 sq. ft. $656
2018-08-11 Single Family 52 Christensen Avenue Salinas, CA 93906 $419,000 1,206 sq. ft. 3,920 sq. ft. $347
2018-08-10 Single Family 19550 Vierra Canyon Road Salinas, CA 93907 $699,000 2,004 sq. ft. 254,390 sq. ft. $349
2018-08-10 Single Family Ranch 107 Columbine Drive Salinas, CA 93906 $465,000 1,432 sq. ft. 6,098 sq. ft. $325
2018-08-10 Single Family Ranch 15105 Charter Oak Boulevard Salinas, CA 93907 $644,000 2,080 sq. ft. 10,019 sq. ft. $310
2018-08-10 Single Family 1543 Cambridge Court Salinas, CA 93906 $575,000 2,110 sq. ft. 6,534 sq. ft. $273
2018-08-10 Single Family 1773 Klamath Drive Salinas, CA 93906 $585,000 2,195 sq. ft. 5,663 sq. ft. $267
2018-08-09 Single Family Traditional 6363 Tustin Road Salinas, CA 93907 $684,950 1,664 sq. ft. 87,120 sq. ft. $412
2018-08-09 Single Family Cabin 177 San Benancio Road Salinas, CA 93908 $899,000 3,508 sq. ft. 108,900 sq. ft. $256
2018-08-09 Single Family Tudor 48 Pine Street Salinas, CA 93901 $559,000 1,892 sq. ft. 6,534 sq. ft. $295
2018-08-09 Single Family 1132 San Marcos Drive Salinas, CA 93901 $625,000 1,792 sq. ft. 6,098 sq. ft. $349
2018-08-08 Single Family 57 Villa Street Salinas, CA 93901 $358,500 629 sq. ft. 2,614 sq. ft. $570
2018-08-08 Single Family Bungalow 119 San Luis Street Salinas, CA 93901 $467,950 971 sq. ft. 3,485 sq. ft. $482
2018-08-08 Single Family 1626 Georgetown Way Salinas, CA 93906 $499,900 1,517 sq. ft. 3,920 sq. ft. $330
2018-08-07 Single Family 49 Maple Street Salinas, CA 93901 $405,000 895 sq. ft. 6,534 sq. ft. $453
2018-08-07 Single Family 1202 Pickford Way Salinas, CA 93906 $530,000 1,867 sq. ft. 6,098 sq. ft. $284
2018-08-07 Single Family Spanish 174 Lorimer Street Salinas, CA 93901 $400,000 1,821 sq. ft. 6,970 sq. ft. $220
2018-08-06 Single Family Ranch 1303 Rossano Court Salinas, CA 93905 $619,000 2,307 sq. ft. 6,534 sq. ft. $268
2018-08-06 Single Family 1151 Paseo Grande Salinas, CA 93905 $415,000 1,172 sq. ft. 4,792 sq. ft. $354
2018-08-06 Single Family 139 Rodeo Avenue Salinas, CA 93906 $419,900 1,299 sq. ft. 6,970 sq. ft. $323
2018-08-06 Single Family 519 Chaparral Street Salinas, CA 93906 $440,000 1,786 sq. ft. 6,098 sq. ft. $246
2018-08-04 Single Family Ranch 18685 Ranchito Del Rio Drive Salinas, CA 93908 $825,000 1,448 sq. ft. 43,560 sq. ft. $570
2018-08-04 Single Family Ranch 18742 Coolidge Street Salinas, CA 93906 $420,000 1,102 sq. ft. 5,663 sq. ft. $381
2018-08-03 Single Family 647 Wilson Street Salinas, CA 93901 $449,000 1,211 sq. ft. 9,583 sq. ft. $371
2018-08-03 Single Family 588 Leslie Drive Salinas, CA 93906 $419,000 1,112 sq. ft. 6,098 sq. ft. $377
2018-08-03 Single Family 10 Princeton Circle Salinas, CA 93906 $555,000 1,999 sq. ft. 5,227 sq. ft. $278
2018-08-03 Single Family 1302 Laurel Drive Salinas, CA 93905 $300,000 1,091 sq. ft. 6,970 sq. ft. $275
2018-08-03 Single Family Ranch 65 Saint Francis Way Salinas, CA 93906 $455,000 1,725 sq. ft. 6,098 sq. ft. $264
2018-08-03 Single Family Colonial 22645 Oak Canyon Road Salinas, CA 93908 $749,000 2,259 sq. ft. 12,632 sq. ft. $332
2018-08-03 Single Family Traditional 1 Pajaro Way Salinas, CA 93901 $575,000 1,992 sq. ft. 7,841 sq. ft. $289
2018-08-03 Single Family 25 Julia Avenue Salinas, CA 93906 $434,900 1,125 sq. ft. 3,920 sq. ft. $387
2018-08-03 Single Family 19 Chalon Circle Salinas, CA 93901 $549,000 1,488 sq. ft. 10,019 sq. ft. $369
2018-08-02 Single Family 640 Seneca Place Salinas, CA 93906 $425,000 1,595 sq. ft. 7,405 sq. ft. $266
2018-08-02 Single Family 841 La Cuesta Court Salinas, CA 93905 $439,000 1,279 sq. ft. 5,663 sq. ft. $343
2018-08-02 Single Family 256 Osage Drive Salinas, CA 93906 $429,000 1,213 sq. ft. 6,098 sq. ft. $354
2018-08-01 Single Family 9 Paseo Primero Salinas, CA 93908 $660,000 960 sq. ft. 6,098 sq. ft. $688
2018-08-01 Single Family Mediterranean 25230 Azalea Court Salinas, CA 93908 $735,000 1,831 sq. ft. 6,098 sq. ft. $401
2018-08-01 Single Family 15590 Charter Oak Boulevard Salinas, CA 93907 $599,000 1,810 sq. ft. 16,117 sq. ft. $331
2018-08-01 Single Family 13482 Paseo Terrano Salinas, CA 93908 $1,168,000 2,648 sq. ft. 31,363 sq. ft. $441
2018-08-01 Single Family 15645 Charter Oak Boulevard Salinas, CA 93907 $569,900 2,332 sq. ft. 13,939 sq. ft. $244
2018-07-31 Single Family Ranch 206 San Miguel Avenue Salinas, CA 93901 $434,500 1,392 sq. ft. 9,583 sq. ft. $312
2018-07-31 Single Family 1606 Siskiyou Drive Salinas, CA 93906 $439,900 1,312 sq. ft. 6,534 sq. ft. $335
2018-07-28 Single Family 9857 Clover Trail Salinas, CA 93907 $669,900 3,080 sq. ft. 17,860 sq. ft. $218
2018-07-27 Single Family Ranch; Traditional 20140 Portola Drive Salinas, CA 93908 $749,500 1,571 sq. ft. 10,890 sq. ft. $477
2018-07-27 Single Family Ranch 18441 Moro Road Salinas, CA 93907 $770,000 2,198 sq. ft. 109,336 sq. ft. $350
2018-07-27 Single Family 1463 Wolf Court Salinas, CA 93905 $499,900 2,255 sq. ft. 6,098 sq. ft. $222
2018-07-26 Single Family 1 Faulkner Circle Salinas, CA 93906 $619,975 2,351 sq. ft. 6,970 sq. ft. $264
2018-07-26 Single Family 17052 Arriba Way Salinas, CA 93907 $588,900 1,490 sq. ft. 13,068 sq. ft. $395
2018-07-25 Single Family 320 Boronda Road Salinas, CA 93907 $400,000 1,634 sq. ft. 12,632 sq. ft. $245
2018-07-25 Single Family 1584 Colusa Place Salinas, CA 93906 $435,000 1,550 sq. ft. 6,098 sq. ft. $281
2018-07-24 Single Family 127 Toro Avenue Salinas, CA 93905 $365,000 780 sq. ft. 7,405 sq. ft. $468
2018-07-24 Single Family Craftsman 415 Lorimer Street Salinas, CA 93901 $795,000 2,621 sq. ft. 8,276 sq. ft. $303
2018-07-23 Single Family 1090 Harding Street Salinas, CA 93906 $397,500 1,176 sq. ft. 7,405 sq. ft. $338
2018-07-23 Single Family 16775 Blackie Road Salinas, CA 93907 $759,000 1,146 sq. ft. 662,983 sq. ft. $662
2018-07-23 Single Family 927 Cortina Way Salinas, CA 93905 $439,950 1,279 sq. ft. 4,792 sq. ft. $344
2018-07-23 Single Family Ranch 39 Harper Canyon Road Salinas, CA 93908 $820,000 1,727 sq. ft. 80,586 sq. ft. $475
2018-07-23 Single Family Victorian 486 Corral De Tierra Road Salinas, CA 93908 $3,100,000 4,190 sq. ft. 1,937,984 sq. ft. $740
2018-07-21 Single Family 1106 Eagle Drive Salinas, CA 93905 $493,000 2,106 sq. ft. 5,663 sq. ft. $234
2018-07-20 Single Family 9946 Pampas Path Salinas, CA 93907 $629,900 1,698 sq. ft. 11,761 sq. ft. $371
2018-07-20 Single Family Ranch 433 Corral De Tierra Road Salinas, CA 93908 $1,225,000 3,055 sq. ft. 108,900 sq. ft. $401
2018-07-20 Single Family 14550 Castlerock Road Salinas, CA 93908 $2,650,000 6,040 sq. ft. 93,654 sq. ft. $439
2018-07-20 Single Family 1505 1st Street Salinas, CA 93906 $425,000 1,235 sq. ft. 3,920 sq. ft. $344
2018-07-19 Single Family 27860 Crowne Point Drive Salinas, CA 93908 $1,265,000 3,818 sq. ft. 73,616 sq. ft. $331
2018-07-19 Single Family 242 Wildwood Way Salinas, CA 93908 $719,000 1,795 sq. ft. 16,553 sq. ft. $401
2018-07-19 Single Family 44 Romie Lane Salinas, CA 93901 $475,000 1,447 sq. ft. 6,098 sq. ft. $328
2018-07-18 Single Family 43 Laureles Grade Salinas, CA 93908 $1,025,000 2,843 sq. ft. 42,689 sq. ft. $361
2018-07-17 Single Family Traditional 55 Paraiso Court Salinas, CA 93901 $579,000 1,850 sq. ft. 8,276 sq. ft. $313
2018-07-16 Single Family 28 Homestead Avenue Salinas, CA 93901 $409,000 1,490 sq. ft. 6,534 sq. ft. $274
2018-07-16 Single Family 33 Hawthorne Street Salinas, CA 93901 $449,000 1,939 sq. ft. 6,098 sq. ft. $232
2018-07-16 Single Family 1255 1st Avenue Salinas, CA 93905 $389,000 1,243 sq. ft. 7,405 sq. ft. $313
2018-07-14 Single Family Ranch 332 Kipling Street Salinas, CA 93901 $530,000 1,505 sq. ft. 5,227 sq. ft. $352
2018-07-13 Single Family Ranch 9730 Maul Oak Place Salinas, CA 93907 $619,000 2,046 sq. ft. 11,326 sq. ft. $303
2018-07-12 Single Family 450 Shelley Way Salinas, CA 93901 $545,000 1,782 sq. ft. 4,792 sq. ft. $306
2018-07-10 Single Family 231 La Mesa Drive Salinas, CA 93901 $525,000 1,386 sq. ft. 6,534 sq. ft. $379
2018-07-10 Single Family 437 Laurel Drive Salinas, CA 93906 $399,000 950 sq. ft. 6,098 sq. ft. $420
2018-07-10 Single Family 7185 Langley Canyon Road Salinas, CA 93907 $685,000 1,391 sq. ft. 10,890 sq. ft. $492
2018-07-10 Single Family 27567 Prestancia Circle Salinas, CA 93908 $1,395,000 4,241 sq. ft. 15,682 sq. ft. $329
2018-07-09 Single Family 832 Fairfax Drive Salinas, CA 93901 $489,900 1,161 sq. ft. 6,534 sq. ft. $422
2018-07-09 Single Family 7602 Langley Canyon Road Salinas, CA 93907 $515,000 1,655 sq. ft. 26,572 sq. ft. $311
2018-07-09 Single Family Contemporary 1802 Monte Bella Boulevard Salinas, CA 93905 $535,000 2,012 sq. ft. 5,663 sq. ft. $266
2018-07-07 Single Family 1540 Caceras Circle Salinas, CA 93906 $395,000 1,170 sq. ft. 2,614 sq. ft. $338
2018-07-07 Single Family 67 Filice Street Salinas, CA 93905 $399,000 1,101 sq. ft. 6,098 sq. ft. $362
2018-07-06 Single Family 543 Alvin Drive Salinas, CA 93906 $420,000 1,312 sq. ft. 6,098 sq. ft. $320
2018-07-06 Single Family Ranch 22392 Montera Place Salinas, CA 93908 $975,000 2,682 sq. ft. 11,326 sq. ft. $364
2018-07-06 Single Family English 27800 Mesa Del Toro Road Salinas, CA 93908 $1,100,000 1,988 sq. ft. 192,971 sq. ft. $553
2018-07-06 Single Family Contemporary 13504 Pierce Street Salinas, CA 93906 $490,000 1,609 sq. ft. 6,098 sq. ft. $305
2018-07-06 Single Family Mediterranean 1537 Oyster Bay Court Salinas, CA 93906 $559,900 1,823 sq. ft. 4,356 sq. ft. $307
2018-07-05 Single Family 716 San Juan Grade Road Salinas, CA 93906 $597,700 1,910 sq. ft. 16,553 sq. ft. $313
2018-07-05 Single Family Mediterranean 27223 Cortina Way Salinas, CA 93908 $1,044,000 3,818 sq. ft. 11,761 sq. ft. $273
2018-07-04 Single Family Traditional 1021 Capri Way Salinas, CA 93905 $500,000 2,035 sq. ft. 3,920 sq. ft. $246
2018-07-04 Single Family Ranch 861 Via Maria Salinas, CA 93901 $559,000 1,468 sq. ft. 7,841 sq. ft. $381
2018-07-03 Single Family Mediterranean 652 Saint George Drive Salinas, CA 93905 $499,999 2,275 sq. ft. 13,504 sq. ft. $220
2018-07-03 Single Family Ranch 9190 Coker Road Salinas, CA 93907 $810,000 3,416 sq. ft. 68,825 sq. ft. $237
2018-07-01 Single Family Ranch 22265 Tara Place Salinas, CA 93908 $1,375,000 2,890 sq. ft. 45,302 sq. ft. $476
2018-06-30 Single Family 19015 Moro Road Salinas, CA 93907 $605,000 1,618 sq. ft. 20,038 sq. ft. $374
2018-06-30 Single Family Ranch 115 Laureles Grade Salinas, CA 93908 $879,000 1,842 sq. ft. 68,389 sq. ft. $477
2018-06-29 Single Family Mediterranean 19652 Woodcrest Drive Salinas, CA 93908 $1,320,000 4,307 sq. ft. 49,223 sq. ft. $306
2018-06-29 Single Family 19615 Mesa Road Salinas, CA 93908 $1,175,000 3,044 sq. ft. 43,560 sq. ft. $386
2018-06-28 Single Family Ranch 165 Riker Terrace Salinas, CA 93901 $665,000 2,527 sq. ft. 21,344 sq. ft. $263
2018-06-28 Single Family 101 Pine Canyon Road Salinas, CA 93908 $2,249,000 4,614 sq. ft. 213,444 sq. ft. $487
2018-06-28 Single Family 852 River Road Salinas, CA 93908 $849,900 2,661 sq. ft. 217,800 sq. ft. $319
2018-06-28 Single Family 257 Navajo Drive Salinas, CA 93906 $415,000 1,142 sq. ft. 6,098 sq. ft. $363
2018-06-28 Single Family Spanish 1 Santa Lucia Avenue Salinas, CA 93901 $1,175,000 3,559 sq. ft. 13,939 sq. ft. $330
2018-06-27 Single Family Contemporary 1027 Capri Way Salinas, CA 93905 $560,000 2,131 sq. ft. 4,792 sq. ft. $263
2018-06-26 Single Family 572 San Felipe Street Salinas, CA 93901 $629,900 1,827 sq. ft. 6,098 sq. ft. $345
2018-06-26 Single Family 17577 River Run Road Salinas, CA 93908 $629,950 1,786 sq. ft. 4,792 sq. ft. $353
2018-06-23 Single Family 7167 Langley Court Salinas, CA 93907 $947,000 4,200 sq. ft. 12,632 sq. ft. $225
2018-06-22 Single Family 1939 Chelsea Court Salinas, CA 93906 $549,999 1,920 sq. ft. 2,614 sq. ft. $286
2018-06-22 Single Family 251 Maple Street Salinas, CA 93901 $485,000 1,506 sq. ft. 6,534 sq. ft. $322
2018-06-22 Single Family 255 Wildwood Way Salinas, CA 93908 $725,000 1,878 sq. ft. 16,988 sq. ft. $386
2018-06-21 Single Family 604 Andina Circle Salinas, CA 93905 $415,000 1,145 sq. ft. 6,970 sq. ft. $362
2018-06-20 Single Family 20248 Palou Drive Salinas, CA 93908 $729,000 1,974 sq. ft. 12,197 sq. ft. $369
2018-06-20 Single Family 60 Carlson Road Salinas, CA 93907 $999,000 1,994 sq. ft. 1,565,111 sq. ft. $501
2018-06-20 Single Family Traditional 1123 Fox Glen Way Salinas, CA 93905 $489,000 1,315 sq. ft. 6,098 sq. ft. $372
2018-06-17 Single Family Contemporary 212 San Benancio Road Salinas, CA 93908 $829,000 2,246 sq. ft. 108,900 sq. ft. $369
2018-06-16 Single Family 1509 Sepulveda Drive Salinas, CA 93906 $459,900 1,775 sq. ft. 3,485 sq. ft. $259
2018-06-15 Single Family Cabin 45 Crazy Horse Canyon Road Salinas, CA 93907 $699,000 1,187 sq. ft. 914,760 sq. ft. $589
2018-06-13 Single Family 1232 Nogal Drive Salinas, CA 93905 $320,000 960 sq. ft. 6,534 sq. ft. $333
2018-06-12 Single Family 25983 High Terrace Lane Salinas, CA 93908 $1,498,000 3,960 sq. ft. 154,202 sq. ft. $378
2018-06-08 Single Family 152 Greenbriar Way Salinas, CA 93907 $619,000 2,376 sq. ft. 6,098 sq. ft. $261
2018-06-07 Single Family 17711 Riverbend Road Salinas, CA 93908 $689,900 2,417 sq. ft. 4,792 sq. ft. $285
2018-06-07 Single Family 114 San Miguel Avenue Salinas, CA 93901 $485,000 1,399 sq. ft. 7,841 sq. ft. $347
2018-06-05 Single Family Mediterranean 153 Corral De Tierra Road Salinas, CA 93908 $2,995,000 6,466 sq. ft. 67,954 sq. ft. $463
2018-06-05 Single Family 1544 Imperial Way Salinas, CA 93906 $429,900 1,253 sq. ft. 5,663 sq. ft. $343
2018-06-05 Single Family 214 Alvin Drive Salinas, CA 93906 $389,000 1,077 sq. ft. 3,485 sq. ft. $361
2018-06-04 Single Family Ranch 46 Harper Canyon Road Salinas, CA 93908 $873,000 2,006 sq. ft. 63,162 sq. ft. $435
2018-06-01 Single Family 13 Ebano Place Salinas, CA 93905 $444,900 1,461 sq. ft. 7,405 sq. ft. $305
2018-06-01 Single Family 17673 River Run Road Salinas, CA 93908 $659,999 2,029 sq. ft. 6,098 sq. ft. $325
2018-05-30 Single Family 224 Massolo Court Salinas, CA 93907 $524,500 1,723 sq. ft. 5,227 sq. ft. $304
2018-05-29 Single Family 2233 San Miguel Canyon Road Salinas, CA 93907 $738,000 1,488 sq. ft. 108,900 sq. ft. $496
2018-05-29 Single Family 1008 Eagle Drive Salinas, CA 93905 $469,999 1,549 sq. ft. 4,792 sq. ft. $303
2018-05-23 Single Family 1796 Windsor Street Salinas, CA 93906 $649,000 2,535 sq. ft. 6,098 sq. ft. $256
2018-05-19 Single Family 416 Comanche Way Salinas, CA 93906 $489,000 2,068 sq. ft. 9,148 sq. ft. $236
2018-05-18 Single Family Contemporary 1133 Teakwood Place Salinas, CA 93901 $645,000 2,332 sq. ft. 8,712 sq. ft. $277
2018-05-11 Single Family Ranch 10734 Country Meadows Road Salinas, CA 93907 $679,777 1,772 sq. ft. 73,616 sq. ft. $384
2018-05-11 Single Family 705 Nacional Court Salinas, CA 93901 $589,000 2,227 sq. ft. 5,663 sq. ft. $264
2018-05-11 Single Family Contemporary 17 Rhine Circle Salinas, CA 93906 $629,000 2,662 sq. ft. 6,098 sq. ft. $236
2018-05-11 Single Family 22115 Berry Drive Salinas, CA 93908 $769,000 2,139 sq. ft. 13,068 sq. ft. $360
2018-05-11 Single Family Custom 410 Laurel Lane Salinas, CA 93908 $1,699,000 2,743 sq. ft. 54,450 sq. ft. $619
2018-05-11 Single Family Ranch 14166 Reservation Road Salinas, CA 93908 $785,800 2,532 sq. ft. 6,098 sq. ft. $310
2018-05-11 Single Family 13580 Paseo Terrano Salinas, CA 93908 $1,299,000 3,040 sq. ft. 24,394 sq. ft. $427
2018-05-11 Single Family 17965 Tanleaf Lane Salinas, CA 93907 $724,000 2,525 sq. ft. 43,996 sq. ft. $287
2018-05-11 Single Family Contemporary 27465 Vista Del Toro Place Salinas, CA 93908 $875,000 1,830 sq. ft. 108,900 sq. ft. $478
2018-05-11 Single Family 1236 Paseo Grande Salinas, CA 93905 $465,000 1,364 sq. ft. 6,534 sq. ft. $341
2018-05-11 Single Family 912 Provincetown Drive Salinas, CA 93906 $529,900 2,071 sq. ft. 6,534 sq. ft. $256
2018-05-11 Single Family 442 Shelley Way Salinas, CA 93901 $539,000 1,782 sq. ft. 4,792 sq. ft. $302
2018-05-11 Single Family Victorian 30 Central Avenue Salinas, CA 93901 $575,000 1,489 sq. ft. 8,276 sq. ft. $386
2018-05-10 Single Family 225 River Road Salinas, CA 93908 $1,250,000 1,739 sq. ft. 1,742,400 sq. ft. $719
2018-05-10 Single Family Mediterranean 1854 Cromwell Drive Salinas, CA 93906 $599,000 2,447 sq. ft. 6,098 sq. ft. $245
2018-05-10 Single Family Traditional 1334 Riker Street Salinas, CA 93901 $490,000 1,929 sq. ft. 6,534 sq. ft. $254
2018-05-10 Single Family 296 River Road Salinas, CA 93908 $589,000 1,271 sq. ft. 20,909 sq. ft. $463
2018-05-10 Single Family 2006 Santa Rita Street Salinas, CA 93906 $440,000 528 sq. ft. 4,356 sq. ft. $833
2018-03-27 Single Family 1066 Polk Street Salinas, CA 93906 $405,000 1,127 sq. ft. 6,098 sq. ft. $359
2018-03-24 Single Family 18314 Vierra Canyon Road Salinas, CA 93907 $399,900 650 sq. ft. 62,726 sq. ft. $615
2018-03-01 Single Family 17 Wimbledon Circle Salinas, CA 93906 $499,000 2,473 sq. ft. 15,682 sq. ft. $202
2018-02-14 Single Family 15891 Meridian Road Salinas, CA 93907 $449,000 1,512 sq. ft. 175,982 sq. ft. $297
2018-02-02 Single Family Farm House 63 Hitchcock Road Salinas, CA 93908 $645,000 2,204 sq. ft. 21,780 sq. ft. $293
2018-01-31 Single Family Ranch 729 California Street Salinas, CA 93901 $399,900 914 sq. ft. 6,098 sq. ft. $438
2018-01-02 Single Family 13230 Louise Street Salinas, CA 93906 $389,000 1,766 sq. ft. 6,098 sq. ft. $220
2017-11-11 Single Family 27219 Cortina Way Salinas, CA 93908 $899,900 2,898 sq. ft. 10,454 sq. ft. $311
2017-06-21 Single Family 464 Comanche Way Salinas, CA 93906 $399,750 1,441 sq. ft. 5,998 sq. ft. $277
2017-06-21 Single Family 1827 Bradbury St Salinas, CA 93906 $469,000 1,681 sq. ft. 3,167 sq. ft. $279
2017-06-21 Single Family 191 Paradise Rd Salinas, CA 93907 $559,900 1,473 sq. ft. 44,431 sq. ft. $380
2017-06-21 Single Family 7206 Langley Canyon Rd Salinas, CA 93907 $599,900 1,582 sq. ft. 51,401 sq. ft. $379
2017-06-19 Single Family 1827 Hemingway Dr Salinas, CA 93906 $465,000 1,681 sq. ft. 3,097 sq. ft. $277
2017-06-19 Single Family 54 Chestnut St Salinas, CA 93901 $542,000 1,903 sq. ft. 7,802 sq. ft. $285
2017-06-19 Single Family 1932 Chelsea Ct Salinas, CA 93906 $637,000 3,043 sq. ft. 6,647 sq. ft. $209
2017-06-19 Single Family 505 Harding Cir Salinas, CA 93906 $425,000 1,427 sq. ft. 11,892 sq. ft. $298
2017-06-18 Single Family 130 N 2nd St Salinas, CA 93906 $379,900 1,173 sq. ft. 6,599 sq. ft. $324
2017-06-17 Single Family 1073 W Alisal St Salinas, CA 93901 $529,900 1,525 sq. ft. 8,499 sq. ft. $347
2017-06-17 Single Family 121 Rodeo Ave Salinas, CA 93906 $309,900 861 sq. ft. 4,400 sq. ft. $360
2017-06-17 Single Family 18463 Deertrack Pl Salinas, CA 93908 $775,000 2,841 sq. ft. 8,102 sq. ft. $273
2017-06-17 Single Family 346 Block Ave Salinas, CA 93906 $359,000 1,039 sq. ft. 3,498 sq. ft. $346
2017-06-16 Single Family 144 E Romie Ln Salinas, CA 93901 $485,000 1,365 sq. ft. 7,902 sq. ft. $355
2017-06-16 Single Family Contemporary 7 Somersworth Cir Salinas, CA 93906 $529,000 2,225 sq. ft. 6,098 sq. ft. $238
2017-06-16 Single Family 321 Tynan Way Salinas, CA 93906 $584,999 2,057 sq. ft. 6,456 sq. ft. $284
2017-06-16 Single Family 1387 New Hampshire Ct Salinas, CA 93905 $425,000 2,398 sq. ft. 5,144 sq. ft. $177
2017-06-15 Single Family 25400 Paseo Del Chaparral Salinas, CA 93908 $1,980,000 4,009 sq. ft. 130,680 sq. ft. $494
2017-06-15 Single Family 1068 Sherman Dr Salinas, CA 93907 $379,000 1,130 sq. ft. 3,341 sq. ft. $335
2017-06-15 Single Family 123 Chestnut St Salinas, CA 93901 $540,000 1,620 sq. ft. 6,499 sq. ft. $333
2017-06-15 Single Family Craftsman 22390 Berry Dr Salinas, CA 93908 $1,249,000 2,879 sq. ft. 108,900 sq. ft. $434
2017-06-14 Single Family 2 Mesa Del Sol Salinas, CA 93908 $1,200,000 3,324 sq. ft. 47,045 sq. ft. $361
2017-06-14 Single Family 527 Chaparral St Salinas, CA 93906 $385,000 1,634 sq. ft. 5,998 sq. ft. $236
2017-06-14 Single Family 241 Montclair Ln Salinas, CA 93906 $499,000 1,587 sq. ft. 4,234 sq. ft. $314
2017-06-14 Single Family 1334 Riker St Salinas, CA 93901 $549,900 1,929 sq. ft. 6,700 sq. ft. $285
2017-06-14 Single Family 9580 Prunedale South Rd Salinas, CA 93907 $620,000 1,456 sq. ft. 32,234 sq. ft. $426
2017-06-14 Single Family 33 Whitman Cir Salinas, CA 93906 $639,000 2,624 sq. ft. 8,638 sq. ft. $244
2017-06-13 Single Family 2147 San Miguel Canyon Rd Salinas, CA 93907 $399,900 843 sq. ft. 20,007 sq. ft. $474
2017-06-13 Single Family Mediterranean; Ranch; Spanish; Traditional 20150 Tarawild Ct Salinas, CA 93907 $777,000 2,370 sq. ft. 298,386 sq. ft. $328
2017-06-12 Single Family 148 Greenbriar Way Salinas, CA 93907 $582,500 2,337 sq. ft. 5,384 sq. ft. $249
2017-06-12 Single Family Ranch 19855 Hopewell Dr Salinas, CA 93907 $649,000 1,622 sq. ft. 108,900 sq. ft. $400
2017-06-12 Single Family 752 Josephine St Salinas, CA 93905 $210,000 1,008 sq. ft. 8,298 sq. ft. $208
2017-06-12 Single Family Mediterranean 431 Victoria Ave Salinas, CA 93906 $595,000 1,920 sq. ft. 7,588 sq. ft. $310
2017-06-11 Single Family 1243 Pasatiempo Way Salinas, CA 93901 $668,880 1,613 sq. ft. 6,970 sq. ft. $415
2017-06-10 Single Family Spanish 429 Alameda Ave Salinas, CA 93901 $555,000 1,680 sq. ft. 6,599 sq. ft. $330
2017-06-10 Single Family 63 Paseo Hermoso Salinas, CA 93908 $1,397,000 2,500 sq. ft. 89,433 sq. ft. $559
2017-06-10 Single Family 1117 Jean Ave Salinas, CA 93905 $360,000 977 sq. ft. 5,998 sq. ft. $368
2017-06-10 Single Family Traditional 742 Nacional Ct Salinas, CA 93901 $535,000 1,542 sq. ft. 6,534 sq. ft. $347
2017-06-10 Single Family Cabin; Contemporary 14693 Charter Oak Blvd Salinas, CA 93907 $589,000 2,218 sq. ft. 12,998 sq. ft. $266
2017-06-10 Single Family 17516 Woodridge Ct Salinas, CA 93908 $599,000 1,764 sq. ft. 3,585 sq. ft. $340
2017-06-10 Single Family 395 Echo Valley Rd C Salinas, CA 93907 $624,900 1,680 sq. ft. 52,272 sq. ft. $372
2017-06-08 Single Family 22150 Berry Dr Salinas, CA 93908 $525,000 1,271 sq. ft. 10,102 sq. ft. $413
2017-06-07 Single Family 624 Alameda Ave Salinas, CA 93901 $575,000 1,956 sq. ft. 7,000 sq. ft. $294
2017-06-07 Single Family 840 Capistrano Dr Salinas, CA 93901 $450,000 1,131 sq. ft. 6,499 sq. ft. $398
2017-06-07 Single Family 1156 Raven Ct Salinas, CA 93905 $499,000 2,255 sq. ft. 5,554 sq. ft. $221
2017-06-07 Single Family 1628 Marshfield Ct Salinas, CA 93906 $549,900 1,659 sq. ft. 7,096 sq. ft. $331
2017-06-06 Single Family 246 La Mesa Dr Salinas, CA 93901 $515,000 1,396 sq. ft. 6,499 sq. ft. $369
2017-06-05 Single Family 1692 Seville St Salinas, CA 93906 $375,000 1,170 sq. ft. 3,306 sq. ft. $321
2017-06-05 Single Family Traditional 313 Addington Ln Salinas, CA 93907 $199,000 955 sq. ft. 11,800 sq. ft. $208
2017-06-05 Single Family Bungalow 1208 Polk St Salinas, CA 93906 $370,000 850 sq. ft. 7,200 sq. ft. $435
2017-06-05 Single Family Bungalow 111 Hawthorne St Salinas, CA 93901 $462,500 928 sq. ft. 7,100 sq. ft. $498
2017-06-05 Single Family 1773 Delancey Dr Salinas, CA 93906 $488,900 1,618 sq. ft. 4,966 sq. ft. $302
2017-06-05 Single Family Bungalow 10385 Reese Cir Salinas, CA 93907 $650,000 936 sq. ft. 95,832 sq. ft. $694
2017-06-03 Single Family 1563 Verona Ct Salinas, CA 93905 $419,900 1,240 sq. ft. 4,095 sq. ft. $339
2017-06-03 Single Family Traditional 1552 Los Altos Way Salinas, CA 93906 $489,000 1,939 sq. ft. 5,663 sq. ft. $252
2017-06-03 Single Family 6915 Lakeview Dr Salinas, CA 93907 $520,000 1,395 sq. ft. 15,246 sq. ft. $373
2017-06-03 Single Family 9405 Silk Oak Pl Salinas, CA 93907 $619,950 1,966 sq. ft. 17,250 sq. ft. $315
2017-06-03 Single Family 22616 Black Mountain Rd Salinas, CA 93908 $650,000 2,067 sq. ft. 32,409 sq. ft. $314
2017-06-01 Single Family 1074 Bison Way Salinas, CA 93905 $449,000 1,353 sq. ft. 4,792 sq. ft. $332
2017-06-01 Single Family Mediterranean 18830 Tiburcio Ct Salinas, CA 93908 $759,000 2,259 sq. ft. 13,983 sq. ft. $336
2017-06-01 Single Family Mediterranean 14501 Roland Canyon Rd Salinas, CA 93908 $3,600,000 6,330 sq. ft. 471,319 sq. ft. $569
2017-06-01 Single Family Country English; Tudor 19607 Brentwood Ct Salinas, CA 93907 $654,888 2,206 sq. ft. 43,560 sq. ft. $297
2017-05-31 Single Family 1847 London Way Salinas, CA 93906 $555,000 1,974 sq. ft. 6,578 sq. ft. $281
2017-05-31 Single Family Cottage 13 Higuera Ln Salinas, CA 93907 $375,000 757 sq. ft. 19,079 sq. ft. $495
2017-05-30 Single Family 1731 Siskiyou Dr Salinas, CA 93906 $428,900 1,643 sq. ft. 5,750 sq. ft. $261
2017-05-30 Single Family 439 Corral De Tierra Rd Salinas, CA 93908 $799,000 2,454 sq. ft. 108,900 sq. ft. $326
2017-05-30 Single Family 1134 Cape Cod Way Salinas, CA 93906 $459,000 1,479 sq. ft. 5,401 sq. ft. $310
2017-05-30 Single Family Contemporary 1552 Cambridge Ct Salinas, CA 93906 $619,500 2,239 sq. ft. 6,316 sq. ft. $277
2017-05-27 Single Family 25507 Sunflower Ct Salinas, CA 93908 $635,000 1,570 sq. ft. 3,006 sq. ft. $404
2017-05-27 Single Family 17720 Riverbend Rd Salinas, CA 93908 $699,900 2,603 sq. ft. 4,966 sq. ft. $269
2017-05-26 Single Family Mediterranean 1552 Duran St Salinas, CA 93906 $389,000 1,170 sq. ft. 3,049 sq. ft. $332
2017-05-26 Single Family 7448 Leafwood Dr Salinas, CA 93907 $609,000 2,133 sq. ft. 45,302 sq. ft. $286
2017-05-26 Single Family 12925 Paseo Barranco Salinas, CA 93908 $1,144,000 5,300 sq. ft. 123,710 sq. ft. $216
2017-05-25 Single Family 15830 Avery Ln Salinas, CA 93907 $575,000 2,256 sq. ft. 108,900 sq. ft. $255
2017-05-25 Single Family 21124 Country Park Rd Salinas, CA 93908 $598,500 1,764 sq. ft. 6,011 sq. ft. $339
2017-05-25 Single Family 1236 Hilltop Dr Salinas, CA 93905 $460,000 2,344 sq. ft. 14,201 sq. ft. $196
2017-05-25 Single Family Mediterranean; Ranch 1939 Oxford Ct Salinas, CA 93906 $537,500 1,920 sq. ft. 5,968 sq. ft. $280
2017-05-25 Single Family 19851 Pesante Rd Salinas, CA 93907 $635,000 3,164 sq. ft. 70,132 sq. ft. $201
2017-05-25 Single Family Ranch 828 Fairfax Dr Salinas, CA 93901 $519,000 1,464 sq. ft. 6,599 sq. ft. $355
2017-05-24 Single Family Ranch 10755 Country Meadows Rd Salinas, CA 93907 $730,000 2,111 sq. ft. 44,431 sq. ft. $346
2017-05-23 Single Family Ranch 16081 Darcie Ln Salinas, CA 93908 $825,000 2,401 sq. ft. 13,634 sq. ft. $344
2017-05-23 Single Family Ranch 1662 Atherton Way Salinas, CA 93906 $474,500 1,763 sq. ft. 6,316 sq. ft. $269
2017-05-23 Single Family 924 San Vincente Ave Salinas, CA 93901 $615,000 1,787 sq. ft. 7,187 sq. ft. $344
2017-05-23 Single Family 26473 Honor Ln Salinas, CA 93908 $675,000 1,905 sq. ft. 7,405 sq. ft. $354
2017-05-23 Single Family 1036 Longfellow Dr Salinas, CA 93906 $525,000 1,974 sq. ft. 6,403 sq. ft. $266
2017-05-22 Single Family Contemporary; Mediterranean 10131 Meadow View Cir Salinas, CA 93907 $989,900 3,534 sq. ft. 55,757 sq. ft. $280
2017-05-22 Single Family 917 Beech St Salinas, CA 93905 $319,000 906 sq. ft. 6,403 sq. ft. $352
2017-05-22 Single Family Tudor 705 Nacional Ct Salinas, CA 93901 $735,000 2,250 sq. ft. 5,881 sq. ft. $327
2017-05-19 Single Family Contemporary 1104 C St Salinas, CA 93905 $379,500 768 sq. ft. 7,797 sq. ft. $494
2017-05-19 Single Family 1509 Madrone Dr Salinas, CA 93905 $489,999 2,227 sq. ft. 5,706 sq. ft. $220
2017-05-18 Single Family Craftsman 54 Capitol St Salinas, CA 93901 $445,000 1,726 sq. ft. 7,187 sq. ft. $258
2017-05-18 Single Family Contemporary 1311 Dickens Dr Salinas, CA 93901 $539,000 1,663 sq. ft. 7,013 sq. ft. $324
2017-05-18 Single Family Ranch 9818 Rye Ct Salinas, CA 93907 $569,000 1,792 sq. ft. 13,939 sq. ft. $318
2017-05-18 Single Family Contemporary 89 Clark St Salinas, CA 93901 $367,500 884 sq. ft. 6,186 sq. ft. $416
2017-05-17 Single Family 100 Robley Rd Salinas, CA 93908 $969,000 2,289 sq. ft. 209,088 sq. ft. $423
2017-05-17 Single Family 320 Capitol St Salinas, CA 93901 $620,000 3,056 sq. ft. 11,718 sq. ft. $203
2017-05-17 Single Family 221 Pine St Salinas, CA 93901 $529,900 1,518 sq. ft. 6,795 sq. ft. $349
2017-05-17 Single Family 1061 Sardinia Dr Salinas, CA 93905 $534,990 2,012 sq. ft. 4,574 sq. ft. $266
2017-05-16 Single Family Traditional 1235 De Cunha Ct Salinas, CA 93906 $539,000 2,591 sq. ft. 6,795 sq. ft. $208
2017-05-15 Single Family 12326 Maravilla Dr Salinas, CA 93908 $1,075,000 3,462 sq. ft. 67,387 sq. ft. $311
2017-05-15 Single Family 24845 Corte Poco 24845 Salinas, CA 93908 $879,000 2,562 sq. ft. 94,961 sq. ft. $343
2017-05-13 Single Family 1869 Bradbury St Salinas, CA 93906 $428,000 1,397 sq. ft. 2,526 sq. ft. $306
2017-05-12 Single Family 13225 Louise St Salinas, CA 93906 $417,000 1,337 sq. ft. 5,663 sq. ft. $312
2017-05-12 Single Family 6985 Lakeview Dr Salinas, CA 93907 $565,000 1,406 sq. ft. 21,344 sq. ft. $402
2017-05-11 Single Family 1511 Aragon Cir Salinas, CA 93906 $319,900 1,002 sq. ft. 3,223 sq. ft. $319
2017-05-11 Single Family Traditional 16 San Pedro St Salinas, CA 93901 $529,000 1,580 sq. ft. 6,316 sq. ft. $335
2017-05-11 Single Family Traditional 21 Chestnut St Salinas, CA 93901 $569,000 1,890 sq. ft. 6,490 sq. ft. $301
2017-05-10 Single Family 38 Young Dr Salinas, CA 93901 $375,000 1,077 sq. ft. 5,706 sq. ft. $348
2017-05-10 Single Family Mediterranean 1134 Cobblestone St Salinas, CA 93905 $489,900 1,823 sq. ft. 4,051 sq. ft. $269
2017-05-10 Single Family 45 Buena Vista St Salinas, CA 93901 $475,000 1,416 sq. ft. 6,490 sq. ft. $335
2017-05-10 Single Family Traditional 15665 Plaza Serena Salinas, CA 93907 $809,900 2,726 sq. ft. 131 sq. ft. $297
2017-05-09 Single Family English 1789 Klamath Dr Salinas, CA 93906 $595,000 2,922 sq. ft. 5,837 sq. ft. $204
2017-05-09 Single Family 9485 S Century Oak Rd Salinas, CA 93907 $649,000 1,966 sq. ft. 17,119 sq. ft. $330
2017-05-08 Single Family 1891 Stratford Ct Salinas, CA 93906 $595,000 2,396 sq. ft. 6,186 sq. ft. $248
2017-05-06 Single Family 1054 Tyler St Salinas, CA 93906 $369,999 926 sq. ft. 6,621 sq. ft. $400
2017-05-06 Single Family 316 Noice Dr Salinas, CA 93906 $429,900 1,705 sq. ft. 7,187 sq. ft. $252
2017-05-05 Single Family 1669 Beacon Hill Dr Salinas, CA 93906 $439,000 1,231 sq. ft. 4,704 sq. ft. $357
2017-05-04 Single Family 1035 Baywood Pl Salinas, CA 93901 $824,000 2,788 sq. ft. 7,405 sq. ft. $296
2017-05-04 Single Family Farm House 25252 Limekiln Rd Salinas, CA 93908 $2,490,000 5,745 sq. ft. 696,960 sq. ft. $433
2017-05-04 Single Family 6980 Lakeview Dr Salinas, CA 93907 $549,000 1,584 sq. ft. 18,557 sq. ft. $347
2017-05-03 Single Family 560 Mcallister St Salinas, CA 93907 $467,900 1,522 sq. ft. 5,663 sq. ft. $307
2017-05-03 Single Family 338 Westminster Dr Salinas, CA 93906 $580,000 2,110 sq. ft. 6,578 sq. ft. $275
2017-05-02 Single Family 408 Elwood St Salinas, CA 93906 $375,000 1,215 sq. ft. 6,882 sq. ft. $309
2017-05-02 Single Family 16531 Meridian Rd Salinas, CA 93907 $529,900 1,583 sq. ft. 20,038 sq. ft. $335
2017-05-02 Single Family 17585 River Run Rd Salinas, CA 93908 $599,999 1,786 sq. ft. 5,140 sq. ft. $336
2017-05-02 Single Family 39 Alameda Pl Salinas, CA 93901 $549,000 2,048 sq. ft. 6,708 sq. ft. $268
2017-05-01 Single Family Mediterranean 21152 Old Ranch Ct Salinas, CA 93908 $618,950 1,666 sq. ft. 4,225 sq. ft. $372
2017-05-01 Single Family 27566 Prestancia Cir Salinas, CA 93908 $929,000 3,818 sq. ft. 13,634 sq. ft. $243
2017-05-01 Single Family Traditional 1603 Atherton Way Salinas, CA 93906 $499,000 2,182 sq. ft. 7,841 sq. ft. $229
2017-04-29 Single Family Ranch 18687 Eisenhower St Salinas, CA 93906 $415,000 1,111 sq. ft. 6,534 sq. ft. $374
2017-04-29 Single Family Contemporary; Ranch 9355 Holly Oak Way Salinas, CA 93907 $569,000 1,770 sq. ft. 13,155 sq. ft. $321
2017-04-28 Single Family Mediterranean 27335 Bavella Way Salinas, CA 93908 $643,900 1,570 sq. ft. 4,661 sq. ft. $410
2017-04-27 Single Family 10 Downing Cir Salinas, CA 93906 $529,000 2,394 sq. ft. 6,098 sq. ft. $221
2017-04-27 Single Family 18182 Vierra Canyon Rd Salinas, CA 93907 $695,000 2,443 sq. ft. 116,741 sq. ft. $284
2017-04-26 Single Family Mediterranean 1630 Bologna Ct Salinas, CA 93905 $475,000 2,035 sq. ft. 4,138 sq. ft. $233
2017-04-26 Single Family Ranch 36 Paseo Hermoso Salinas, CA 93908 $895,000 2,549 sq. ft. 57,935 sq. ft. $351
2017-04-25 Single Family Ranch 1231 Summit Dr Salinas, CA 93905 $375,000 1,030 sq. ft. 8,189 sq. ft. $364
2017-04-24 Single Family 235 San Juan Grade Rd Salinas, CA 93906 $345,000 764 sq. ft. 8,320 sq. ft. $452
2017-04-24 Single Family 30 Central Ave Salinas, CA 93901 $589,000 1,489 sq. ft. 8,407 sq. ft. $396
2017-04-22 Single Family 17235 Garlen Ln Salinas, CA 93907 $625,000 2,230 sq. ft. 21,780 sq. ft. $280
2017-04-22 Single Family 174 Riker Ter Salinas, CA 93901 $485,000 1,153 sq. ft. 6,011 sq. ft. $421
2017-04-21 Single Family Ranch; Traditional 759 Monterey Salinas Highway Salinas, CA 93908 $1,150,000 2,400 sq. ft. 304,920 sq. ft. $479
2017-04-21 Single Family Traditional 11 Elmsford Cir Salinas, CA 93906 $608,000 2,642 sq. ft. 5,968 sq. ft. $230
2017-04-20 Single Family Custom 22557 Black Mountain Rd Salinas, CA 93908 $675,000 2,096 sq. ft. 13,199 sq. ft. $322
2017-04-19 Single Family 19240 Eden Path Salinas, CA 93907 $875,000 3,072 sq. ft. 131,551 sq. ft. $285
2017-04-19 Single Family 942 Lupin Salinas, CA 93906 $439,900 2,690 sq. ft. 7,405 sq. ft. $164
2017-04-19 Single Family 458 Shelley Way Salinas, CA 93901 $450,000 1,376 sq. ft. 5,793 sq. ft. $327
2017-04-18 Single Family 1401 Alma Salinas, CA 93905 $179,000 664 sq. ft. 7,623 sq. ft. $270
2017-04-18 Single Family Traditional 242 Navajo Salinas, CA 93906 $399,900 1,208 sq. ft. 5,663 sq. ft. $331
2017-04-17 Single Family 1340 Rossano Salinas, CA 93905 $579,000 2,976 sq. ft. 6,534 sq. ft. $195
2017-04-17 Single Family Contemporary; Custom 7350 Arrowhead Dr Salinas, CA 93907 $849,000 3,224 sq. ft. 110,207 sq. ft. $263
2017-04-15 Single Family 42 Magnolia Dr Salinas, CA 93905 $340,000 923 sq. ft. 6,011 sq. ft. $368
2017-04-14 Single Family 14570 Mountain Quail Rd Salinas, CA 93908 $795,000 2,673 sq. ft. 6,098 sq. ft. $297
2017-04-13 Single Family 767 Central Ave Salinas, CA 93901 $409,000 1,123 sq. ft. 7,231 sq. ft. $364
2017-04-12 Single Family Contemporary 1780 Windsor St Salinas, CA 93906 $610,000 2,535 sq. ft. 6,447 sq. ft. $241
2017-04-12 Single Family 1238 Adams St Salinas, CA 93906 $385,000 1,396 sq. ft. 7,405 sq. ft. $276
2017-04-12 Single Family Country English 1608 Piazza Dr Salinas, CA 93905 $494,500 2,487 sq. ft. 4,922 sq. ft. $199
2017-04-11 Single Family Tract 1633 Chico Way Salinas, CA 93906 $395,000 1,260 sq. ft. 3,920 sq. ft. $313
2017-04-11 Single Family 215 Carriage Dr Salinas, CA 93905 $379,900 1,506 sq. ft. 3,311 sq. ft. $252
2017-04-10 Single Family 821 La Cuesta Ct Salinas, CA 93905 $430,000 1,279 sq. ft. 4,792 sq. ft. $336
2017-04-10 Single Family French 42 Grove St Salinas, CA 93901 $565,000 1,701 sq. ft. 6,490 sq. ft. $332
2017-04-07 Single Family 1048 Bison Way Salinas, CA 93905 $459,900 2,106 sq. ft. 5,271 sq. ft. $218
2017-04-07 Single Family Ranch 22942 Cordoba Pl Salinas, CA 93908 $759,000 1,910 sq. ft. 10,934 sq. ft. $397
2017-04-07 Single Family 1329 Rossano Ct Salinas, CA 93905 $695,000 3,564 sq. ft. 8,712 sq. ft. $195
2017-04-07 Single Family Spanish 297 San Benancio Rd Salinas, CA 93908 $895,000 2,583 sq. ft. 132,422 sq. ft. $346
2017-04-07 Single Family 17679 Riverbend Rd Salinas, CA 93908 $645,000 2,603 sq. ft. 5,053 sq. ft. $248
2017-04-06 Single Family Mediterranean 22522 Indian Springs Rd Salinas, CA 93908 $1,399,000 3,640 sq. ft. 17,860 sq. ft. $384
2017-04-06 Single Family Craftsman 431 West St Salinas, CA 93901 $599,000 2,764 sq. ft. 6,490 sq. ft. $217
2017-04-04 Single Family 251 Natividad Rd Salinas, CA 93906 $699,000 2,333 sq. ft. 62,291 sq. ft. $300
2017-03-31 Single Family 1712 Los Coches Cir Salinas, CA 93906 $395,000 1,260 sq. ft. 3,920 sq. ft. $313
2017-03-31 Single Family Contemporary 22635 Oak Canyon Rd Salinas, CA 93908 $699,900 2,259 sq. ft. 11,674 sq. ft. $310
2017-03-31 Single Family Traditional 215 Winham St Salinas, CA 93901 $560,000 1,563 sq. ft. 6,403 sq. ft. $358
2017-03-31 Single Family Contemporary 212a San Benancio Rd Salinas, CA 93908 $845,000 2,246 sq. ft. 108,900 sq. ft. $376
2017-03-31 Single Family Ranch 17064 Mcguffie Rd Salinas, CA 93907 $615,000 1,814 sq. ft. 43,560 sq. ft. $339
2017-03-31 Single Family Spanish 321 West St Salinas, CA 93901 $499,900 1,559 sq. ft. 5,881 sq. ft. $321
2017-03-30 Single Family Contemporary 1605 Marshfield Ct Salinas, CA 93906 $480,000 1,794 sq. ft. 6,882 sq. ft. $268
2017-03-30 Single Family 7 Randall Rd Salinas, CA 93907 $370,000 1,716 sq. ft. 10,193 sq. ft. $216
2017-03-30 Single Family 1225 Tahiti Pl Salinas, CA 93905 $312,200 1,481 sq. ft. 6,011 sq. ft. $211
2017-03-28 Single Family Ranch; Tract 1843 Redondo Way Salinas, CA 93906 $406,000 1,371 sq. ft. 6,970 sq. ft. $296
2017-03-24 Single Family 1497 Cherokee Dr Salinas, CA 93906 $387,700 1,441 sq. ft. 11,021 sq. ft. $269
2017-03-23 Single Family 1241 Bolero Ave Salinas, CA 93906 $385,000 1,215 sq. ft. 5,881 sq. ft. $317
2017-03-21 Single Family 18665 Moro Rd Salinas, CA 93907 $669,500 3,109 sq. ft. 62,291 sq. ft. $215
2017-03-20 Single Family 323 Tynan Way Salinas, CA 93906 $599,000 2,239 sq. ft. 7,187 sq. ft. $268
2017-03-17 Single Family 486 Paradise Rd Salinas, CA 93907 $515,000 1,924 sq. ft. 60,548 sq. ft. $268
2017-03-16 Single Family Ranch 25303 Camino De Chamisal Salinas, CA 93908 $1,269,500 2,880 sq. ft. 65,776 sq. ft. $441
2017-03-16 Single Family Contemporary; Ranch 14475 Mountain Quail Rd Salinas, CA 93908 $950,000 2,851 sq. ft. 7,405 sq. ft. $333
2017-03-13 Single Family Ranch 26455 Tierra Vista Ln Salinas, CA 93908 $1,245,000 3,525 sq. ft. 109,902 sq. ft. $353
2017-03-10 Single Family 1236 E Paseo Grande St Salinas, CA 93905 $429,000 1,364 sq. ft. 6,621 sq. ft. $315
2017-03-09 Single Family 1021 Acosta St Salinas, CA 93905 $339,900 1,385 sq. ft. 7,623 sq. ft. $245
2017-03-08 Single Family 721 Via Maria Salinas, CA 93901 $375,000 1,597 sq. ft. 6,186 sq. ft. $235
2017-03-06 Single Family Traditional 63 La Mirada Ct Salinas, CA 93901 $669,000 3,474 sq. ft. 7,492 sq. ft. $193
2017-03-03 Single Family Ranch 17918 Pesante Rd Salinas, CA 93907 $499,500 1,496 sq. ft. 24,699 sq. ft. $334
2017-03-03 Single Family Victorian 399 Central Ave Salinas, CA 93901 $452,500 2,153 sq. ft. 7,100 sq. ft. $210
2017-03-02 Single Family Victorian 102 Geil St Salinas, CA 93901 $395,000 1,080 sq. ft. 5,184 sq. ft. $366
2017-03-02 Single Family 222 Katherine Ave Salinas, CA 93901 $510,000 1,382 sq. ft. 6,011 sq. ft. $369
2017-03-02 Single Family Traditional 18727 Louise Ct Salinas, CA 93906 $359,000 1,045 sq. ft. 6,970 sq. ft. $344
2017-02-25 Single Family 22740 Torero Ct Salinas, CA 93908 $868,000 2,592 sq. ft. 11,326 sq. ft. $335
2017-02-24 Single Family Contemporary 720 La Mesa Dr Salinas, CA 93901 $468,000 1,601 sq. ft. 6,621 sq. ft. $292
2017-02-23 Single Family Contemporary; Spanish 780 El Camino Real N Salinas, CA 93907 $1,099,000 1,850 sq. ft. 847,242 sq. ft. $594
2017-02-22 Single Family 728 E Market St Salinas, CA 93905 $325,000 803 sq. ft. 6,882 sq. ft. $405
2017-02-16 Single Family Cape Cod 803 Elm Dr Salinas, CA 93905 $299,900 1,099 sq. ft. 5,009 sq. ft. $273
2017-02-16 Single Family Traditional 237 Sansome St Salinas, CA 93907 $436,900 1,533 sq. ft. 4,051 sq. ft. $285
2017-02-14 Single Family Ranch 817 Via Maria Salinas, CA 93901 $475,000 1,676 sq. ft. 6,098 sq. ft. $283
2017-02-10 Single Family 242 Towt St Salinas, CA 93905 $349,900 1,354 sq. ft. 7,187 sq. ft. $258
2017-02-10 Single Family 24485 Vereda Del Valle Salinas, CA 93908 $1,300,000 3,090 sq. ft. 58,501 sq. ft. $421
2017-02-10 Single Family Charter Oak Blvd Salinas, CA 93907 $610,000 2,332 sq. ft. 13,939 sq. ft. $262
2017-02-09 Single Family 14682 Charter Oak Blvd Salinas, CA 93907 $642,500 2,056 sq. ft. 14,854 sq. ft. $312
2017-02-08 Single Family 153 Orchard Ave Salinas, CA 93905 $330,000 960 sq. ft. 4,792 sq. ft. $344
2017-02-03 Single Family Traditional 24665 Vereda Corta Salinas, CA 93908 $1,398,000 3,088 sq. ft. 56,802 sq. ft. $453
2017-02-01 Single Family Cabin; Contemporary; Custom 28000 Underwood Rd Salinas, CA 93908 $2,295,000 2,850 sq. ft. 1,437,480 sq. ft. $805
2017-01-30 Single Family 777 Kilbreth Ave Salinas, CA 93905 $340,000 1,195 sq. ft. 8,189 sq. ft. $285
2017-01-17 Single Family 9135 Moonlight Ct Salinas, CA 93907 $899,950 2,750 sq. ft. 131,987 sq. ft. $327
2017-01-14 Single Family Ranch 201 W Acacia St Salinas, CA 93901 $549,000 2,073 sq. ft. 7,013 sq. ft. $265
2017-01-12 Single Family 8 Spoleto Cir Salinas, CA 93905 $435,000 2,131 sq. ft. 4,225 sq. ft. $204